createdAt,value
2023-03-20T00:03:49.656Z,2.63
2023-03-20T00:08:54.344Z,2.40
2023-03-20T00:14:09.237Z,2.93
2023-03-20T00:19:20.144Z,2.37
2023-03-20T00:24:23.336Z,2.63
2023-03-20T00:29:28.036Z,2.57
2023-03-20T00:34:31.333Z,2.30
2023-03-20T00:39:36.933Z,2.53
2023-03-20T00:44:44.749Z,2.57
2023-03-20T00:49:50.788Z,1.80
2023-03-20T00:54:53.292Z,1.70
2023-03-20T01:00:08.018Z,1.87
2023-03-20T01:05:10.667Z,2.00
2023-03-20T01:10:14.006Z,1.60
2023-03-20T01:15:22.685Z,1.80
2023-03-20T01:20:28.541Z,1.53
2023-03-20T01:25:31.323Z,1.70
2023-03-20T01:30:34.466Z,1.90
2023-03-20T01:35:37.821Z,2.20
2023-03-20T01:40:49.242Z,2.13
2023-03-20T01:46:17.609Z,1.90
2023-03-20T01:51:26.463Z,1.63
2023-03-20T01:56:39.154Z,1.80
2023-03-20T02:01:44.115Z,1.50
2023-03-20T02:06:47.218Z,1.87
2023-03-20T02:11:54.995Z,1.40
2023-03-20T02:16:58.148Z,1.57
2023-03-20T02:22:22.020Z,1.40
2023-03-20T02:28:07.867Z,1.17
2023-03-20T02:34:08.297Z,1.27
2023-03-20T02:39:13.685Z,1.10
2023-03-20T02:44:43.817Z,0.63
2023-03-20T02:50:08.824Z,0.70
2023-03-20T02:55:42.636Z,0.60
2023-03-20T03:01:01.709Z,0.73
2023-03-20T03:06:18.114Z,0.70
2023-03-20T03:11:21.122Z,0.63
2023-03-20T03:16:32.344Z,0.70
2023-03-20T03:21:39.172Z,0.90
2023-03-20T03:26:42.999Z,0.50
2023-03-20T03:31:46.653Z,0.70
2023-03-20T03:37:02.463Z,0.50
2023-03-20T03:42:23.154Z,0.80
2023-03-20T03:47:51.066Z,0.60
2023-03-20T03:52:58.359Z,0.63
2023-03-20T03:58:07.560Z,0.70
2023-03-20T04:03:12.342Z,0.60
2023-03-20T04:08:16.608Z,0.40
2023-03-20T04:13:20.092Z,0.70
2023-03-20T04:18:22.535Z,0.70
2023-03-20T04:23:25.230Z,0.70
2023-03-20T04:28:28.223Z,0.53
2023-03-20T04:33:51.404Z,0.73
2023-03-20T04:39:19.775Z,0.87
2023-03-20T04:44:22.510Z,0.80
2023-03-20T04:49:25.156Z,0.90
2023-03-20T04:54:27.798Z,1.33
2023-03-20T04:59:30.313Z,0.80
2023-03-20T05:04:32.994Z,0.80
2023-03-20T05:09:35.899Z,0.90
2023-03-20T05:14:40.795Z,0.60
2023-03-20T05:19:58.348Z,0.60
2023-03-20T05:25:19.811Z,0.80
2023-03-20T05:30:37.692Z,0.90
2023-03-20T05:36:09.519Z,0.90
2023-03-20T05:41:32.384Z,0.80
2023-03-20T05:47:01.093Z,0.80
2023-03-20T05:52:22.500Z,0.70
2023-03-20T05:58:00.339Z,0.90
2023-03-20T06:03:16.423Z,1.00
2023-03-20T06:08:32.161Z,0.73
2023-03-20T06:13:36.320Z,1.00
2023-03-20T06:18:41.578Z,0.90
2023-03-20T06:23:44.930Z,0.77
2023-03-20T06:28:47.575Z,1.10
2023-03-20T06:33:50.941Z,0.90
2023-03-20T06:38:53.442Z,1.00
2023-03-20T06:43:57.516Z,0.97
2023-03-20T06:49:05.180Z,0.80
2023-03-20T06:54:07.910Z,0.90
2023-03-20T06:59:10.512Z,1.10
2023-03-20T07:04:14.815Z,1.20
2023-03-20T07:09:23.939Z,1.30
2023-03-20T07:14:26.491Z,1.10
2023-03-20T07:19:33.056Z,1.07
2023-03-20T07:24:36.158Z,1.37
2023-03-20T07:29:39.322Z,1.10
2023-03-20T07:34:49.751Z,1.10
2023-03-20T07:39:53.922Z,1.20
2023-03-20T07:45:22.345Z,1.17
2023-03-20T07:50:24.926Z,1.33
2023-03-20T07:55:27.388Z,1.10
2023-03-20T08:00:30.097Z,1.10
2023-03-20T08:05:33.610Z,1.23
2023-03-20T08:10:36.496Z,1.00
2023-03-20T08:15:39.495Z,1.17
2023-03-20T08:20:42.453Z,1.00
2023-03-20T08:25:49.562Z,1.23
2023-03-20T08:30:52.111Z,1.10
2023-03-20T08:35:58.913Z,1.57
2023-03-20T08:41:01.381Z,1.00
2023-03-20T08:46:04.915Z,0.90
2023-03-20T08:51:08.386Z,1.20
2023-03-20T08:56:11.466Z,1.20
2023-03-20T09:01:15.554Z,1.10
2023-03-20T09:06:18.046Z,1.10
2023-03-20T09:11:20.496Z,0.90
2023-03-20T09:16:22.989Z,1.37
2023-03-20T09:21:25.681Z,1.20
2023-03-20T09:26:28.165Z,1.00
2023-03-20T09:31:31.075Z,1.00
2023-03-20T09:36:34.080Z,1.00
2023-03-20T09:41:49.159Z,1.03
2023-03-20T09:47:20.374Z,1.10
2023-03-20T09:52:27.540Z,1.20
2023-03-20T09:57:41.274Z,1.23
2023-03-20T10:02:50.893Z,1.90
2023-03-20T10:08:07.691Z,1.60
2023-03-20T10:13:18.777Z,1.60
2023-03-20T10:18:29.859Z,1.63
2023-03-20T10:24:06.811Z,1.37
2023-03-20T10:29:20.859Z,1.30
2023-03-20T10:34:43.641Z,1.40
2023-03-20T10:40:24.814Z,1.10
2023-03-20T10:45:48.328Z,1.00
2023-03-20T10:51:02.352Z,1.20
2023-03-20T10:56:15.058Z,1.47
2023-03-20T11:01:20.759Z,1.20
2023-03-20T11:06:28.876Z,1.53
2023-03-20T11:11:35.518Z,1.70
2023-03-20T11:16:40.754Z,1.47
2023-03-20T11:21:47.559Z,2.00
2023-03-20T11:26:51.237Z,2.83
2023-03-20T11:31:53.997Z,2.63
2023-03-20T11:37:09.697Z,2.03
2023-03-20T11:42:28.639Z,3.00
2023-03-20T11:47:35.994Z,2.70
2023-03-20T11:52:40.460Z,2.53
2023-03-20T11:57:47.368Z,2.93
2023-03-20T12:02:50.845Z,2.70
2023-03-20T12:07:58.264Z,3.30
2023-03-20T12:13:06.741Z,3.00
2023-03-20T12:18:46.856Z,3.37
2023-03-20T12:24:01.260Z,3.00
2023-03-20T12:29:22.301Z,2.77
2023-03-20T12:34:39.953Z,3.37
2023-03-20T12:39:49.095Z,2.90
2023-03-20T12:45:11.425Z,3.50
2023-03-20T12:50:35.540Z,3.07
2023-03-20T12:55:53.717Z,2.40
2023-03-20T13:01:20.026Z,2.80
2023-03-20T13:06:39.965Z,2.60
2023-03-20T13:12:00.667Z,2.80
2023-03-20T13:17:24.830Z,2.80
2023-03-20T13:22:54.223Z,2.97
2023-03-20T13:28:20.899Z,2.30
2023-03-20T13:33:36.417Z,2.43
2023-03-20T13:38:45.377Z,2.87
2023-03-20T13:43:57.387Z,2.47
2023-03-20T13:49:08.121Z,2.50
2023-03-20T13:54:49.559Z,2.70
2023-03-20T14:00:16.937Z,2.90
2023-03-20T14:05:23.104Z,2.73
2023-03-20T14:10:25.666Z,2.60
2023-03-20T14:15:36.819Z,2.77
2023-03-20T14:20:41.903Z,2.70
2023-03-20T14:25:44.609Z,2.80
2023-03-20T14:30:53.909Z,2.30
2023-03-20T14:36:19.263Z,2.40
2023-03-20T14:41:37.564Z,1.90
2023-03-20T14:46:58.431Z,2.50
2023-03-20T14:52:26.635Z,2.27
2023-03-20T14:57:48.713Z,2.23
2023-03-20T15:03:06.513Z,2.00
2023-03-20T15:08:16.384Z,2.20
2023-03-20T15:13:20.658Z,2.37
2023-03-20T15:18:25.076Z,2.23
2023-03-20T15:23:27.852Z,2.20
2023-03-20T15:28:31.393Z,2.30
2023-03-20T15:33:42.768Z,1.73
2023-03-20T15:38:46.992Z,2.10
2023-03-20T15:43:49.565Z,1.93
2023-03-20T15:48:52.176Z,1.30
2023-03-20T15:53:55.258Z,1.10
2023-03-20T15:58:58.316Z,1.20
2023-03-20T16:04:01.248Z,1.20
2023-03-20T16:09:08.186Z,1.20
2023-03-20T16:14:22.209Z,1.10
2023-03-20T16:19:26.371Z,1.00
2023-03-20T16:24:37.226Z,1.47
2023-03-20T16:29:44.129Z,5.13
2023-03-20T16:34:51.353Z,1.33
2023-03-20T16:40:05.563Z,1.20
2023-03-20T16:45:28.375Z,1.60
2023-03-20T16:50:42.053Z,1.50
2023-03-20T16:55:52.419Z,1.20
2023-03-20T17:01:07.079Z,1.53
2023-03-20T17:06:21.748Z,1.43
2023-03-20T17:11:39.178Z,1.20
2023-03-20T17:16:42.297Z,1.60
2023-03-20T17:21:46.479Z,1.53
2023-03-20T17:26:56.446Z,1.50
2023-03-20T17:31:58.953Z,1.30
2023-03-20T17:37:03.459Z,1.43
2023-03-20T17:42:18.496Z,1.00
2023-03-20T17:47:24.245Z,1.20
2023-03-20T17:52:28.570Z,1.20
2023-03-20T17:57:35.170Z,1.20
2023-03-20T18:02:37.865Z,1.20
2023-03-20T18:07:40.605Z,1.40
2023-03-20T18:12:43.059Z,1.27
2023-03-20T18:17:45.470Z,1.40
2023-03-20T18:22:47.902Z,1.40
2023-03-20T18:27:50.424Z,1.47
2023-03-20T18:32:52.932Z,1.60
2023-03-20T18:37:55.899Z,1.33
2023-03-20T18:42:58.852Z,1.40
2023-03-20T18:48:03.992Z,1.50
2023-03-20T18:53:07.798Z,1.40
2023-03-20T18:58:21.788Z,1.57
2023-03-20T19:03:25.492Z,1.40
2023-03-20T19:08:28.149Z,1.70
2023-03-20T19:13:30.671Z,1.80
2023-03-20T19:18:33.241Z,1.60
2023-03-20T19:23:35.926Z,1.60
2023-03-20T19:28:41.168Z,1.57
2023-03-20T19:33:44.228Z,1.60
2023-03-20T19:38:46.646Z,1.30
2023-03-20T19:43:53.558Z,1.53
2023-03-20T19:48:57.982Z,1.87
2023-03-20T19:54:00.711Z,1.97
2023-03-20T19:59:03.337Z,1.70
2023-03-20T20:04:06.172Z,1.50
2023-03-20T20:09:08.858Z,1.40
2023-03-20T20:14:14.604Z,2.40
2023-03-20T20:19:17.919Z,1.67
2023-03-20T20:24:20.415Z,1.90
2023-03-20T20:29:24.557Z,2.00
2023-03-20T20:39:50.352Z,2.33
2023-03-20T20:44:52.981Z,2.23
2023-03-20T20:49:55.493Z,1.90
2023-03-20T20:55:02.820Z,1.80
2023-03-20T21:00:11.829Z,1.97
2023-03-20T21:05:16.282Z,2.20
2023-03-20T21:10:21.282Z,2.60
2023-03-20T21:15:23.883Z,2.50
2023-03-20T21:20:26.374Z,2.93
2023-03-20T21:25:47.441Z,2.40
2023-03-20T21:31:20.599Z,2.70
2023-03-20T21:36:13.136Z,2.80
2023-03-20T21:41:16.373Z,2.53
2023-03-20T21:46:58.646Z,2.10
2023-03-20T21:52:37.358Z,1.83
2023-03-20T21:57:39.724Z,1.97
2023-03-20T22:02:30.940Z,1.90
2023-03-20T22:08:15.241Z,2.03
2023-03-20T22:24:30.019Z,1.70
2023-03-20T22:30:01.650Z,1.50
2023-03-20T22:40:42.138Z,1.70
2023-03-20T22:45:14.672Z,1.70
2023-03-20T22:50:17.782Z,1.50
2023-03-20T22:55:20.747Z,1.77
2023-03-20T23:00:23.343Z,1.80
2023-03-20T23:05:26.228Z,1.80
2023-03-20T23:10:28.711Z,1.70
2023-03-20T23:15:31.571Z,1.50
2023-03-20T23:20:34.717Z,1.60
2023-03-20T23:25:40.223Z,1.70
2023-03-20T23:30:49.777Z,1.67
2023-03-20T23:36:12.503Z,1.80
2023-03-20T23:41:19.104Z,2.00
2023-03-20T23:46:21.542Z,1.83
2023-03-20T23:51:24.098Z,1.80
2023-03-20T23:56:26.762Z,1.80
